Time;durP1;ratioP1;P1;durP2;ratioP2;P2;SDS_P1;SDS_P2;PMS_P1;PMS_P2;Temp;Humidity;BMP_temperature;BMP_pressure;BME280_temperature;BME280_humidity;BME280_pressure;Samples;Min_cycle;Max_cycle;Signal;HPM_P1;HPM_P2
2023/12/29 00:01:14;;;;;;;3.78;2.42;;;;;;;5.90;86.34;98249.97;5007573;28;20038;-80
2023/12/29 00:03:40;;;;;;;7.47;3.28;;;;;;;5.99;86.09;98247.75;4992224;28;20049;-80
2023/12/29 00:06:06;;;;;;;5.05;2.22;;;;;;;5.94;86.05;98237.06;5011179;28;20029;-81
2023/12/29 00:08:31;;;;;;;2.58;2.38;;;;;;;5.85;86.58;98218.06;5027020;28;20038;-80
2023/12/29 00:10:57;;;;;;;5.45;2.50;;;;;;;5.85;87.11;98218.06;4993185;28;20033;-82
2023/12/29 00:13:23;;;;;;;4.85;2.42;;;;;;;5.90;86.72;98220.84;5012147;28;20068;-80
2023/12/29 00:15:53;;;;;;;5.20;2.42;;;;;;;5.82;86.37;98207.13;5012873;28;20033;-80
2023/12/29 00:18:19;;;;;;;5.82;3.13;;;;;;;5.82;86.65;98212.41;5007790;28;20050;-80
2023/12/29 00:20:44;;;;;;;7.40;2.65;;;;;;;5.86;86.31;98203.81;5012777;28;20056;-80
2023/12/29 00:23:10;;;;;;;2.25;2.08;;;;;;;5.94;85.93;98211.38;5017196;28;20030;-80
2023/12/29 00:25:38;;;;;;;5.50;3.67;;;;;;;5.87;86.06;98204.63;4995764;28;20034;-81
2023/12/29 00:28:04;;;;;;;5.43;2.65;;;;;;;5.77;86.93;98194.56;4997752;28;20026;-80
2023/12/29 00:30:30;;;;;;;4.43;2.20;;;;;;;5.84;86.84;98208.53;5010316;28;20547;-80
2023/12/29 00:32:56;;;;;;;4.60;2.42;;;;;;;5.93;86.55;98206.31;5014911;28;20033;-81
2023/12/29 00:35:21;;;;;;;6.72;2.60;;;;;;;5.86;87.01;98197.69;5014220;28;20065;-80
2023/12/29 00:37:47;;;;;;;3.30;2.13;;;;;;;5.81;86.29;98189.63;5011583;28;20473;-79
2023/12/29 00:40:12;;;;;;;2.78;2.22;;;;;;;5.90;86.24;98204.13;5007042;28;20105;-80
2023/12/29 00:42:38;;;;;;;4.15;2.40;;;;;;;5.87;86.68;98201.97;5010245;28;20366;-80
2023/12/29 00:45:04;;;;;;;6.25;2.30;;;;;;;5.89;86.56;98206.00;5011673;28;20044;-81
2023/12/29 00:47:30;;;;;;;2.90;1.90;;;;;;;5.91;86.65;98206.56;5011354;28;20121;-80
2023/12/29 00:49:56;;;;;;;2.97;2.42;;;;;;;5.92;86.47;98202.88;5008358;28;20529;-81
2023/12/29 00:52:21;;;;;;;6.70;2.47;;;;;;;5.79;87.15;98200.44;5008704;28;20042;-81
2023/12/29 00:54:47;;;;;;;3.95;3.17;;;;;;;5.83;87.33;98204.22;4992859;28;20034;-80
2023/12/29 00:57:12;;;;;;;3.70;2.10;;;;;;;5.82;86.44;98202.63;5011067;28;20022;-80
2023/12/29 00:59:41;;;;;;;3.28;1.92;;;;;;;5.89;86.99;98207.84;5007150;28;20038;-80
2023/12/29 01:02:07;;;;;;;6.32;2.35;;;;;;;5.85;86.91;98196.88;5006351;28;20037;-80
2023/12/29 01:04:33;;;;;;;1.92;1.42;;;;;;;5.89;86.28;98200.69;5007390;28;20404;-81
2023/12/29 01:06:58;;;;;;;3.20;2.47;;;;;;;5.87;86.72;98186.88;5007683;28;20543;-80
2023/12/29 01:09:26;;;;;;;6.65;2.15;;;;;;;5.91;87.43;98195.16;5006345;28;20038;-80
2023/12/29 01:11:51;;;;;;;3.85;2.10;;;;;;;5.89;87.46;98200.69;5011182;28;20125;-80
2023/12/29 01:14:17;;;;;;;2.05;1.83;;;;;;;5.95;86.83;98201.59;5008195;28;20548;-80
2023/12/29 01:16:42;;;;;;;2.28;2.05;;;;;;;5.91;86.99;98197.81;4992534;28;20030;-80
2023/12/29 01:19:07;;;;;;;5.28;2.20;;;;;;;5.98;86.76;98204.56;5015313;28;20026;-80
2023/12/29 01:21:33;;;;;;;3.58;1.85;;;;;;;5.96;87.30;98200.56;5013171;28;20026;-80
2023/12/29 01:24:04;;;;;;;3.78;2.20;;;;;;;6.03;86.37;98202.03;5011844;28;20030;-80
2023/12/29 01:26:29;;;;;;;2.90;2.33;;;;;;;6.02;87.08;98192.50;5013495;28;20551;-80
2023/12/29 01:28:55;;;;;;;2.15;1.75;;;;;;;6.01;86.55;98209.41;4992791;28;20030;-80
2023/12/29 01:31:20;;;;;;;2.15;1.95;;;;;;;6.02;87.19;98189.84;5009848;28;20481;-80
2023/12/29 01:33:45;;;;;;;2.85;2.10;;;;;;;6.01;87.83;98174.97;5010147;28;20490;-80
2023/12/29 01:36:17;;;;;;;4.40;2.38;;;;;;;5.97;87.97;98178.31;5011559;28;20092;-80
2023/12/29 01:38:43;;;;;;;2.53;2.33;;;;;;;6.01;87.44;98169.69;5004545;28;20414;-81
2023/12/29 01:41:08;;;;;;;3.10;2.08;;;;;;;6.04;87.90;98169.22;5009403;28;20022;-80
2023/12/29 01:43:33;;;;;;;2.05;1.80;;;;;;;5.95;87.82;98161.88;5011233;28;20061;-80
2023/12/29 01:45:59;;;;;;;2.45;2.08;;;;;;;6.03;87.59;98162.28;4977413;28;20029;-80
2023/12/29 01:48:24;;;;;;;4.05;2.45;;;;;;;6.01;87.28;98152.97;5009740;28;20049;-80
2023/12/29 01:50:50;;;;;;;5.28;2.20;;;;;;;5.98;88.09;98148.94;4989825;28;20061;-80
2023/12/29 01:53:16;;;;;;;2.40;2.00;;;;;;;6.05;88.01;98148.81;5007177;28;20060;-80
2023/12/29 01:55:42;;;;;;;3.33;2.05;;;;;;;6.05;87.60;98160.22;5003355;28;20452;-80
2023/12/29 01:58:07;;;;;;;1.60;1.50;;;;;;;5.98;87.78;98143.66;5001121;28;20030;-80
2023/12/29 02:00:33;;;;;;;2.10;1.73;;;;;;;6.07;87.22;98142.22;4985760;28;20088;-81
2023/12/29 02:02:59;;;;;;;3.33;2.15;;;;;;;5.98;88.04;98148.94;5003830;28;20030;-80
2023/12/29 02:05:28;;;;;;;2.97;1.80;;;;;;;6.00;88.01;98165.44;5003421;28;20040;-80
2023/12/29 02:07:53;;;;;;;1.80;1.67;;;;;;;6.07;88.49;98162.66;5003789;28;20473;-80
2023/12/29 02:10:19;;;;;;;4.55;1.98;;;;;;;6.00;88.00;98143.44;5003181;28;20033;-80
2023/12/29 02:12:48;;;;;;;3.42;1.67;;;;;;;6.06;87.58;98139.84;5009233;28;20042;-80
2023/12/29 02:15:13;;;;;;;2.50;1.92;;;;;;;6.04;88.27;98126.84;5015190;28;20026;-80
2023/12/29 02:17:51;;;;;;;2.40;1.92;;;;;;;6.13;88.11;98121.97;4976448;28;20129;-81
2023/12/29 02:20:17;;;;;;;5.20;2.55;;;;;;;6.16;87.21;98132.06;5005075;28;20040;-80
2023/12/29 02:22:42;;;;;;;3.00;2.30;;;;;;;6.13;87.65;98118.50;5003211;28;20030;-81
2023/12/29 02:25:08;;;;;;;3.17;1.90;;;;;;;6.25;87.26;98125.34;4982199;28;21971;-80
2023/12/29 02:28:09;;;;;;;2.53;2.03;;;;;;;6.18;86.80;98116.72;4995396;28;20050;-80
2023/12/29 02:30:46;;;;;;;2.60;2.10;;;;;;;6.23;87.77;98131.91;5004379;28;20584;-80
2023/12/29 02:33:18;;;;;;;2.15;1.95;;;;;;;6.19;86.96;98121.00;4986884;28;20044;-80
2023/12/29 02:35:46;;;;;;;3.25;1.83;;;;;;;6.32;87.00;98125.19;5003719;28;20417;-80
2023/12/29 02:38:11;;;;;;;2.65;1.90;;;;;;;6.27;86.42;98114.53;5005428;28;20026;-80
2023/12/29 02:40:37;;;;;;;2.50;1.92;;;;;;;6.18;87.00;98105.34;5001847;28;20034;-80
2023/12/29 02:43:03;;;;;;;3.20;1.70;;;;;;;6.21;86.82;98116.25;5002030;28;20421;-80
2023/12/29 02:45:28;;;;;;;2.22;1.80;;;;;;;6.17;86.94;98095.78;4970990;28;20033;-80
2023/12/29 02:47:54;;;;;;;3.92;2.17;;;;;;;6.17;86.95;98101.06;5003722;28;20120;-80
2023/12/29 02:50:19;;;;;;;3.15;1.60;;;;;;;6.15;86.77;98103.97;5000686;28;20038;-80
2023/12/29 02:52:45;;;;;;;4.85;1.85;;;;;;;6.10;86.47;98114.47;5002514;28;20458;-80
2023/12/29 02:55:10;;;;;;;3.50;1.73;;;;;;;6.14;86.66;98114.81;5001165;28;20061;-80
2023/12/29 02:57:35;;;;;;;2.72;1.80;;;;;;;6.21;87.24;98107.50;5003185;28;20034;-80
2023/12/29 03:00:01;;;;;;;3.42;1.55;;;;;;;6.15;87.10;98105.81;5001974;28;20341;-80
2023/12/29 03:02:26;;;;;;;1.65;0.80;;;;;;;6.18;86.92;98111.44;5000582;28;20064;-80
2023/12/29 03:04:51;;;;;;;3.05;2.28;;;;;;;6.19;87.14;98106.94;5003516;28;20049;-80
2023/12/29 03:07:17;;;;;;;2.75;1.92;;;;;;;6.18;86.66;98108.00;5003367;28;20228;-81
2023/12/29 03:09:42;;;;;;;4.90;1.70;;;;;;;6.16;86.83;98105.56;5003654;28;20038;-80
2023/12/29 03:12:08;;;;;;;6.63;2.20;;;;;;;6.12;86.13;98108.94;5001750;28;20065;-80
2023/12/29 03:14:33;;;;;;;6.20;2.03;;;;;;;6.10;86.75;98108.34;5004638;28;20054;-80
2023/12/29 03:16:59;;;;;;;4.18;2.08;;;;;;;6.14;86.43;98112.94;4992510;28;20034;-80
2023/12/29 03:19:24;;;;;;;4.93;1.70;;;;;;;6.23;86.70;98105.41;5011009;28;20022;-80
2023/12/29 03:21:50;;;;;;;2.50;1.92;;;;;;;6.08;86.19;98095.38;5010436;28;20030;-80
2023/12/29 03:24:16;;;;;;;2.55;1.50;;;;;;;6.11;86.01;98081.66;5015034;28;20034;-81
2023/12/29 03:26:42;;;;;;;4.97;2.05;;;;;;;6.16;86.26;98084.38;5014931;28;20049;-80
2023/12/29 03:29:07;;;;;;;3.95;2.05;;;;;;;6.05;86.26;98072.78;5007897;28;20053;-80
2023/12/29 03:31:32;;;;;;;2.05;1.90;;;;;;;6.10;86.71;98095.13;5011657;28;20033;-81
2023/12/29 03:33:58;;;;;;;2.40;1.80;;;;;;;6.12;85.99;98079.78;5014334;28;20044;-80
2023/12/29 03:36:23;;;;;;;3.13;1.30;;;;;;;6.10;86.23;98092.47;4994883;28;20061;-80
2023/12/29 03:38:48;;;;;;;3.05;1.88;;;;;;;6.13;85.62;98071.63;5010924;28;20501;-80
2023/12/29 03:41:14;;;;;;;2.50;1.58;;;;;;;6.15;85.93;98076.66;5014773;28;21368;-80
2023/12/29 03:43:39;;;;;;;3.20;2.40;;;;;;;6.12;85.73;98079.78;5011613;28;20115;-80
2023/12/29 03:46:18;;;;;;;2.55;1.75;;;;;;;6.11;86.51;98070.25;5011549;28;20022;-80
2023/12/29 03:48:44;;;;;;;2.80;2.05;;;;;;;6.11;86.00;98062.31;5002624;28;20121;-80
2023/12/29 03:51:09;;;;;;;2.08;1.88;;;;;;;6.07;85.70;98053.22;5011281;28;20168;-80
2023/12/29 03:53:35;;;;;;;2.97;1.67;;;;;;;6.13;85.87;98042.47;5011782;28;20076;-80
2023/12/29 03:56:05;;;;;;;2.42;1.70;;;;;;;6.12;86.08;98038.22;5011111;28;20026;-80
2023/12/29 03:58:30;;;;;;;7.72;2.67;;;;;;;6.18;86.29;98041.75;5016744;28;20980;-80
2023/12/29 04:00:55;;;;;;;5.70;2.28;;;;;;;6.15;85.92;98026.34;5008839;28;20034;-80
2023/12/29 04:03:21;;;;;;;2.33;2.10;;;;;;;6.23;85.97;98055.06;5011966;28;20050;-80
2023/12/29 04:05:46;;;;;;;4.85;2.85;;;;;;;6.23;85.76;98055.06;5019892;28;20095;-81
2023/12/29 04:08:13;;;;;;;1.27;1.17;;;;;;;6.27;86.07;98051.72;4993947;28;20040;-80
2023/12/29 04:10:38;;;;;;;6.88;2.00;;;;;;;6.28;85.63;98057.81;5011064;28;20404;-80
2023/12/29 04:13:04;;;;;;;3.05;2.22;;;;;;;6.26;85.75;98059.91;5007996;28;20036;-80
2023/12/29 04:15:29;;;;;;;2.83;2.17;;;;;;;6.23;86.00;98047.13;5012479;28;20030;-79
2023/12/29 04:17:54;;;;;;;7.47;2.90;;;;;;;6.26;86.81;98054.59;4992815;28;20036;-79
2023/12/29 04:20:20;;;;;;;2.92;2.17;;;;;;;6.28;85.99;98049.88;5010594;28;20478;-79
2023/12/29 04:22:46;;;;;;;2.53;2.08;;;;;;;6.24;86.24;98040.78;5011872;28;20465;-80
2023/12/29 04:25:12;;;;;;;2.60;1.90;;;;;;;6.24;85.83;98040.78;5009784;28;20437;-80
2023/12/29 04:27:39;;;;;;;4.13;2.30;;;;;;;6.30;86.30;98053.06;5008029;28;20072;-80
2023/12/29 04:30:05;;;;;;;3.38;2.00;;;;;;;6.19;85.73;98015.03;5010544;28;20076;-79
2023/12/29 04:32:30;;;;;;;2.67;1.95;;;;;;;6.17;86.35;98030.34;5011250;28;20470;-80
2023/12/29 04:34:56;;;;;;;8.70;2.40;;;;;;;6.25;86.45;98045.03;5010380;28;20065;-79
2023/12/29 04:37:21;;;;;;;2.35;2.13;;;;;;;6.23;86.83;98049.78;5010205;28;20049;-81
2023/12/29 04:39:46;;;;;;;3.22;2.17;;;;;;;6.21;86.72;98031.47;5011144;28;20248;-80
2023/12/29 04:42:12;;;;;;;6.68;2.20;;;;;;;6.22;86.59;98033.09;4978010;28;20508;-81
2023/12/29 04:44:37;;;;;;;5.13;2.88;;;;;;;6.21;86.79;98023.53;5009375;28;20034;-80
2023/12/29 04:47:03;;;;;;;4.53;2.63;;;;;;;6.26;86.59;98038.72;4977409;28;20026;-80
2023/12/29 04:49:29;;;;;;;7.10;2.20;;;;;;;6.17;87.00;98008.34;5011369;28;20046;-80
2023/12/29 04:51:54;;;;;;;5.10;2.78;;;;;;;6.22;86.40;98027.00;5008806;28;20033;-80
2023/12/29 04:54:19;;;;;;;4.75;2.65;;;;;;;6.26;86.87;98036.06;4981298;28;20049;-80
2023/12/29 04:56:45;;;;;;;7.38;2.50;;;;;;;6.27;86.52;98038.47;5010680;28;20029;-81
2023/12/29 04:59:10;;;;;;;6.00;2.22;;;;;;;6.22;86.12;98033.09;5015250;28;20108;-80
2023/12/29 05:01:35;;;;;;;3.92;2.22;;;;;;;6.28;86.66;98018.06;5009575;28;20046;-80
2023/12/29 05:04:01;;;;;;;3.28;2.28;;;;;;;6.26;86.72;98026.28;4991958;28;20038;-80
2023/12/29 05:06:26;;;;;;;5.40;2.72;;;;;;;6.19;87.80;98027.47;5011580;28;20029;-80
2023/12/29 05:08:51;;;;;;;3.35;2.00;;;;;;;6.30;87.07;98024.75;5006815;28;20072;-80
2023/12/29 05:11:17;;;;;;;2.72;1.92;;;;;;;6.18;87.44;98029.28;4993181;28;20045;-80
2023/12/29 05:13:42;;;;;;;4.57;2.58;;;;;;;6.17;88.12;98019.75;5007513;28;20037;-80
2023/12/29 05:16:07;;;;;;;3.03;2.60;;;;;;;6.24;88.91;98035.50;5008692;28;20041;-80
2023/12/29 05:18:33;;;;;;;5.03;2.53;;;;;;;6.22;88.11;98035.75;5009127;28;20022;-81
2023/12/29 05:20:58;;;;;;;6.15;2.90;;;;;;;6.23;88.06;98028.56;5010045;28;20036;-80
2023/12/29 05:23:23;;;;;;;5.60;2.85;;;;;;;6.26;89.35;98042.16;5007914;28;20164;-80
2023/12/29 05:25:49;;;;;;;7.68;2.33;;;;;;;6.17;87.92;98033.00;5010954;28;20100;-80
2023/12/29 05:28:14;;;;;;;5.35;2.40;;;;;;;6.23;88.77;98037.34;5009317;28;20026;-80
2023/12/29 05:30:39;;;;;;;4.05;1.95;;;;;;;6.22;89.16;98040.25;5006062;28;20026;-80
2023/12/29 05:33:05;;;;;;;7.90;2.10;;;;;;;6.22;88.97;98042.88;5008750;28;20057;-80
2023/12/29 05:35:30;;;;;;;5.25;2.40;;;;;;;6.24;89.00;98038.97;5007023;28;20092;-80
2023/12/29 05:37:55;;;;;;;5.50;2.83;;;;;;;6.24;88.38;98040.78;4971540;28;20453;-80
2023/12/29 05:40:21;;;;;;;6.05;2.35;;;;;;;6.24;88.89;98054.03;5005309;28;20481;-81
2023/12/29 05:42:46;;;;;;;4.35;2.60;;;;;;;6.16;89.24;98036.69;5005329;28;20041;-80
2023/12/29 05:45:12;;;;;;;8.25;2.58;;;;;;;6.21;89.35;98054.50;5010584;28;20033;-80
2023/12/29 05:47:37;;;;;;;7.22;2.53;;;;;;;6.15;89.58;98056.28;5009497;28;20064;-80
2023/12/29 05:50:03;;;;;;;7.03;2.72;;;;;;;6.22;89.12;98059.59;5008335;28;20038;-80
2023/12/29 05:52:28;;;;;;;9.13;2.83;;;;;;;6.21;88.96;98050.03;5007393;28;20344;-81
2023/12/29 05:54:54;;;;;;;5.35;2.58;;;;;;;6.27;88.74;98061.53;4992141;28;20092;-81
2023/12/29 05:57:19;;;;;;;3.63;2.10;;;;;;;6.22;89.29;98054.28;5010380;28;20056;-81
2023/12/29 05:59:45;;;;;;;5.20;2.47;;;;;;;6.22;88.58;98054.28;4994156;28;20105;-80
2023/12/29 06:02:10;;;;;;;5.85;2.42;;;;;;;6.19;88.61;98044.16;5004025;28;20034;-81
2023/12/29 06:04:35;;;;;;;4.65;2.70;;;;;;;6.18;89.22;98061.09;5005981;28;20045;-81
2023/12/29 06:07:01;;;;;;;8.15;2.40;;;;;;;6.19;88.85;98067.19;4976193;28;20029;-80
2023/12/29 06:09:26;;;;;;;4.43;1.80;;;;;;;6.19;88.36;98048.66;5009347;28;20366;-80
2023/12/29 06:11:52;;;;;;;9.68;3.00;;;;;;;6.17;88.38;98058.69;5007739;28;20029;-81
2023/12/29 06:14:17;;;;;;;5.00;2.38;;;;;;;6.16;88.77;98057.09;4982055;28;20067;-82
2023/12/29 06:16:43;;;;;;;8.48;2.83;;;;;;;6.12;89.36;98053.28;5004840;28;20535;-81
2023/12/29 06:19:09;;;;;;;6.53;2.95;;;;;;;6.04;88.36;98044.72;5013638;28;20034;-80
2023/12/29 06:21:41;;;;;;;7.40;3.05;;;;;;;6.09;88.82;98051.16;5008513;28;20065;-80
2023/12/29 06:24:07;;;;;;;7.57;2.85;;;;;;;6.02;89.09;98040.69;5008001;28;20050;-81
2023/12/29 06:26:32;;;;;;;6.88;2.05;;;;;;;6.04;88.92;98070.41;4976004;28;20038;-81
2023/12/29 06:28:58;;;;;;;9.38;2.50;;;;;;;6.15;89.06;98058.13;5012725;28;20026;-81
2023/12/29 06:31:24;;;;;;;9.52;2.70;;;;;;;6.13;89.39;98068.16;5003241;28;20037;-81
2023/12/29 06:33:50;;;;;;;5.75;2.50;;;;;;;6.16;89.71;98035.91;5011157;28;20230;-80
2023/12/29 06:36:15;;;;;;;6.07;2.47;;;;;;;6.17;89.52;98064.00;4974504;28;20053;-81
2023/12/29 06:38:41;;;;;;;3.78;2.33;;;;;;;6.09;89.82;98059.09;4991699;28;20033;-82
2023/12/29 06:41:06;;;;;;;5.00;2.30;;;;;;;6.11;89.85;98057.00;5000611;28;20108;-81
2023/12/29 06:43:32;;;;;;;4.72;2.65;;;;;;;6.15;89.83;98069.53;5007382;28;20033;-81
2023/12/29 06:45:57;;;;;;;2.53;2.15;;;;;;;6.04;89.91;98060.63;5011102;28;20022;-81
2023/12/29 06:48:23;;;;;;;8.40;2.55;;;;;;;6.13;89.71;98076.91;5011098;28;20493;-81
2023/12/29 06:50:48;;;;;;;7.68;2.42;;;;;;;6.04;90.17;98076.50;5009004;28;20048;-81
2023/12/29 06:53:14;;;;;;;7.88;2.45;;;;;;;6.07;90.53;98077.06;4996330;28;20040;-82
2023/12/29 06:55:40;;;;;;;3.95;2.65;;;;;;;6.11;89.84;98080.84;5012390;28;20041;-81
2023/12/29 06:58:05;;;;;;;8.50;2.10;;;;;;;6.08;90.12;98074.16;5011180;28;20034;-81
2023/12/29 07:00:31;;;;;;;4.03;2.22;;;;;;;6.10;89.87;98068.63;5011158;28;20021;-81
2023/12/29 07:02:56;;;;;;;7.90;2.30;;;;;;;6.01;90.02;98063.72;5013149;28;20040;-81
2023/12/29 07:05:22;;;;;;;4.60;2.45;;;;;;;6.05;90.42;98070.16;5007132;28;20061;-81
2023/12/29 07:07:47;;;;;;;5.78;2.15;;;;;;;6.06;89.86;98068.31;5013646;28;20037;-80
2023/12/29 07:10:13;;;;;;;9.95;3.20;;;;;;;6.09;90.00;98085.56;5013209;28;20034;-80
2023/12/29 07:12:40;;;;;;;7.82;3.65;;;;;;;6.10;90.03;98082.69;5013050;28;20033;-81
2023/12/29 07:15:06;;;;;;;4.15;2.03;;;;;;;6.03;89.95;98103.22;5011567;28;20465;-81
2023/12/29 07:17:31;;;;;;;6.55;2.35;;;;;;;6.07;88.97;98096.41;5011402;28;20034;-80
2023/12/29 07:19:57;;;;;;;3.47;2.33;;;;;;;6.00;89.95;98093.09;5005179;28;20030;-81
2023/12/29 07:22:22;;;;;;;8.75;2.60;;;;;;;6.04;89.48;98089.75;5009667;28;20036;-80
2023/12/29 07:24:47;;;;;;;5.10;2.40;;;;;;;6.09;90.00;98094.34;4981384;28;20084;-81
2023/12/29 07:27:13;;;;;;;6.18;2.20;;;;;;;6.08;89.21;98105.97;5010986;28;20037;-81
2023/12/29 07:29:38;;;;;;;7.95;2.28;;;;;;;6.00;88.88;98101.88;4994930;28;20073;-81
2023/12/29 07:32:04;;;;;;;5.63;2.45;;;;;;;6.09;89.60;98112.06;4996404;28;20405;-81
2023/12/29 07:34:31;;;;;;;3.67;2.50;;;;;;;6.14;89.46;98128.06;5012992;28;20120;-81
2023/12/29 07:36:58;;;;;;;6.13;2.30;;;;;;;6.10;88.92;98111.00;4993380;28;20487;-81
2023/12/29 07:39:24;;;;;;;3.92;2.38;;;;;;;6.10;88.80;98108.34;5010870;28;20030;-81
2023/12/29 07:41:50;;;;;;;3.35;2.15;;;;;;;6.07;89.85;98115.75;5009128;28;20447;-82
2023/12/29 07:44:17;;;;;;;3.33;2.13;;;;;;;6.07;89.88;98122.91;4991901;28;20061;-81
2023/12/29 07:46:42;;;;;;;5.20;2.33;;;;;;;6.04;90.07;98113.59;5004618;28;20064;-81
2023/12/29 07:49:08;;;;;;;5.32;2.30;;;;;;;6.08;90.31;98111.25;5005928;28;20080;-81
2023/12/29 07:51:33;;;;;;;5.78;2.30;;;;;;;6.16;89.83;98112.72;5008070;28;20072;-81
2023/12/29 07:53:59;;;;;;;5.75;2.38;;;;;;;6.15;89.76;98105.81;5033973;28;20026;-81
2023/12/29 07:56:24;;;;;;;4.00;2.30;;;;;;;6.17;89.75;98106.38;4996999;28;20505;-81
2023/12/29 07:58:50;;;;;;;3.40;1.83;;;;;;;6.11;90.33;98118.75;5016634;28;20429;-82
2023/12/29 08:01:15;;;;;;;6.68;2.20;;;;;;;6.18;90.02;98103.47;4998149;28;20053;-81
2023/12/29 08:03:41;;;;;;;8.38;2.35;;;;;;;6.15;90.77;98113.75;5007464;28;20469;-81
2023/12/29 08:06:06;;;;;;;6.10;2.28;;;;;;;6.13;90.39;98113.19;4994022;28;20034;-81
2023/12/29 08:08:32;;;;;;;5.00;2.58;;;;;;;6.28;90.44;98110.81;5011432;28;20056;-81
2023/12/29 08:10:57;;;;;;;5.97;2.10;;;;;;;6.25;89.95;98112.09;5011484;28;20061;-81
2023/12/29 08:13:22;;;;;;;6.75;2.70;;;;;;;6.21;89.62;98105.66;5012027;28;20029;-81
2023/12/29 08:15:48;;;;;;;4.57;2.63;;;;;;;6.20;89.78;98112.03;5006772;28;20433;-81
2023/12/29 08:18:13;;;;;;;7.60;2.83;;;;;;;6.25;89.50;98113.94;4969457;28;20121;-81
2023/12/29 08:20:38;;;;;;;8.20;3.30;;;;;;;6.17;90.68;98106.38;4976814;28;20160;-81
2023/12/29 08:23:04;;;;;;;5.47;2.45;;;;;;;6.27;89.74;98102.06;5007388;28;20452;-80
2023/12/29 08:25:29;;;;;;;7.57;3.65;;;;;;;6.28;89.68;98111.63;5008788;28;20030;-81
2023/12/29 08:27:58;;;;;;;9.02;2.20;;;;;;;6.11;90.07;98108.16;5009690;28;20395;-80
2023/12/29 08:30:23;;;;;;;8.15;2.08;;;;;;;6.20;89.68;98090.00;5011389;28;20041;-80
2023/12/29 08:32:48;;;;;;;5.47;2.28;;;;;;;6.33;89.09;98102.97;4988685;28;20033;-80
2023/12/29 08:35:14;;;;;;;5.43;2.35;;;;;;;6.21;89.62;98100.38;5011241;28;20036;-81
2023/12/29 08:37:39;;;;;;;7.45;1.85;;;;;;;6.29;89.21;98107.13;4989276;28;20068;-81
2023/12/29 08:40:06;;;;;;;5.63;2.30;;;;;;;6.21;89.77;98105.66;5012887;28;20045;-81
2023/12/29 08:42:31;;;;;;;8.27;2.50;;;;;;;6.35;88.63;98106.97;4994545;28;20061;-81
2023/12/29 08:44:59;;;;;;;5.57;2.05;;;;;;;6.39;89.14;98099.34;5008258;28;20124;-81
2023/12/29 08:47:24;;;;;;;12.25;2.38;;;;;;;6.28;89.21;98087.78;5010460;28;20076;-81
2023/12/29 08:49:49;;;;;;;4.45;2.35;;;;;;;6.37;89.81;98096.94;5011683;28;20057;-81
2023/12/29 08:52:15;;;;;;;7.07;2.15;;;;;;;6.42;88.93;98107.59;5012999;28;20445;-81
2023/12/29 08:54:40;;;;;;;4.90;2.40;;;;;;;6.40;89.41;98098.31;5010147;28;20030;-81
2023/12/29 08:57:06;;;;;;;9.65;2.60;;;;;;;6.43;89.53;98089.88;4992578;28;20048;-80
2023/12/29 08:59:32;;;;;;;6.93;2.20;;;;;;;6.42;88.71;98090.94;4975540;28;20030;-81
2023/12/29 09:01:57;;;;;;;4.80;1.80;;;;;;;6.46;89.39;98092.03;4996677;28;20476;-81
2023/12/29 09:04:23;;;;;;;4.20;1.83;;;;;;;6.44;89.49;98079.03;4979200;28;20036;-81
2023/12/29 09:06:48;;;;;;;3.13;2.13;;;;;;;6.41;89.94;98079.50;4986389;28;20053;-81
2023/12/29 09:09:14;;;;;;;9.57;3.25;;;;;;;6.50;89.85;98082.56;5020584;28;20064;-81
2023/12/29 09:11:40;;;;;;;5.05;2.40;;;;;;;6.50;89.90;98088.69;5000978;28;21381;-81
2023/12/29 09:14:05;;;;;;;2.00;1.63;;;;;;;6.53;89.93;98084.75;5004622;28;20029;-81
2023/12/29 09:16:31;;;;;;;11.10;2.67;;;;;;;6.50;89.08;98083.38;4971944;28;20038;-81
2023/12/29 09:18:56;;;;;;;6.00;2.20;;;;;;;6.58;90.08;98087.47;5006363;28;20033;-81
2023/12/29 09:21:21;;;;;;;5.60;2.17;;;;;;;6.57;90.10;98076.06;4986193;28;20070;-80
2023/12/29 09:23:47;;;;;;;8.88;2.47;;;;;;;6.54;89.84;98067.78;5015751;28;20377;-80
2023/12/29 09:26:12;;;;;;;6.60;2.42;;;;;;;6.59;89.56;98065.22;4986152;28;20092;-80
2023/12/29 09:28:42;;;;;;;4.25;2.25;;;;;;;6.62;89.93;98070.03;4990059;28;20030;-81
2023/12/29 09:31:08;;;;;;;4.80;1.83;;;;;;;6.66;89.88;98079.91;5004893;28;20022;-81
2023/12/29 09:33:33;;;;;;;3.95;1.80;;;;;;;6.65;89.61;98083.63;4980087;28;20028;-81
2023/12/29 09:35:58;;;;;;;3.45;2.10;;;;;;;6.71;89.23;98084.47;4985604;28;20469;-81
2023/12/29 09:38:24;;;;;;;11.27;2.13;;;;;;;6.67;89.14;98083.38;5010690;28;20084;-81
2023/12/29 09:40:52;;;;;;;15.77;2.53;;;;;;;6.64;89.48;98074.03;4992526;28;20057;-80
2023/12/29 09:43:18;;;;;;;5.10;1.88;;;;;;;6.80;89.80;98085.69;5004706;28;20429;-81
2023/12/29 09:45:46;;;;;;;2.72;2.05;;;;;;;6.82;88.87;98083.59;5007033;28;20413;-80
2023/12/29 09:48:14;;;;;;;7.45;2.08;;;;;;;6.87;89.90;98077.56;5003950;28;20425;-80
2023/12/29 09:50:40;;;;;;;6.47;2.33;;;;;;;6.87;89.72;98098.78;5007385;28;20044;-81
2023/12/29 09:53:07;;;;;;;5.72;1.92;;;;;;;6.85;89.17;98091.06;5009314;28;20057;-81
2023/12/29 09:55:33;;;;;;;4.68;1.80;;;;;;;6.78;90.04;98101.03;4992311;28;20384;-81
2023/12/29 09:58:00;;;;;;;5.15;2.38;;;;;;;6.80;90.29;98085.69;5009072;28;20101;-81
2023/12/29 10:00:27;;;;;;;9.80;2.50;;;;;;;6.84;90.47;98089.44;5004289;28;20256;-81
2023/12/29 10:02:53;;;;;;;6.22;2.42;;;;;;;6.90;90.66;98106.25;5000678;28;20488;-81
2023/12/29 10:05:18;;;;;;;6.43;2.17;;;;;;;6.88;90.92;98111.78;5007156;28;20481;-81
2023/12/29 10:07:46;;;;;;;4.85;2.10;;;;;;;6.79;91.74;98105.31;5007637;28;20038;-81
2023/12/29 10:10:18;;;;;;;5.13;2.45;;;;;;;6.76;92.63;98098.63;5001420;28;20160;-81
2023/12/29 10:12:47;;;;;;;7.90;2.17;;;;;;;6.67;93.15;98093.97;4995068;28;20669;-81
2023/12/29 10:15:37;;;;;;;7.93;2.67;;;;;;;6.71;94.21;98111.81;5001595;28;20029;-81
2023/12/29 10:18:18;;;;;;;11.45;3.08;;;;;;;6.72;94.07;98110.78;5001654;28;20033;-82
2023/12/29 10:21:01;;;;;;;6.80;2.38;;;;;;;6.65;94.15;98104.81;5001725;28;20029;-83
2023/12/29 10:23:41;;;;;;;4.93;1.80;;;;;;;6.63;94.45;98111.41;5006460;28;20075;-82
2023/12/29 10:26:10;;;;;;;3.72;2.05;;;;;;;6.69;94.65;98108.59;5006975;28;20116;-82
2023/12/29 10:28:35;;;;;;;6.47;1.98;;;;;;;6.71;93.82;98095.09;5005496;28;20469;-82
2023/12/29 10:31:01;;;;;;;5.97;2.55;;;;;;;6.72;94.08;98115.28;5005232;28;20045;-82
2023/12/29 10:33:26;;;;;;;2.50;1.80;;;;;;;6.75;94.90;98107.63;5003581;28;20034;-83
2023/12/29 10:36:03;;;;;;;11.48;3.22;;;;;;;6.74;95.65;98113.19;5013014;28;20037;-82
2023/12/29 10:38:29;;;;;;;7.35;2.25;;;;;;;6.67;95.42;98099.28;5007069;28;20645;-83
2023/12/29 10:40:54;;;;;;;5.07;2.00;;;;;;;6.77;95.77;98102.09;5014461;28;20599;-83
2023/12/29 10:43:24;;;;;;;6.15;2.63;;;;;;;6.80;95.26;98102.41;5015605;28;20117;-82
2023/12/29 10:45:49;;;;;;;4.13;2.60;;;;;;;6.87;94.98;98099.59;5011738;28;20021;-82
2023/12/29 10:48:24;;;;;;;4.63;2.40;;;;;;;6.81;95.80;98106.66;5009078;28;20044;-82
2023/12/29 10:50:49;;;;;;;5.15;2.08;;;;;;;6.79;96.41;98110.63;5004243;28;20540;-82
2023/12/29 10:53:18;;;;;;;2.28;2.00;;;;;;;6.79;96.57;98113.25;5011190;28;20037;-83
2023/12/29 10:55:43;;;;;;;3.42;1.83;;;;;;;6.65;96.21;98106.66;5010009;28;20033;-82
2023/12/29 10:58:09;;;;;;;4.20;3.10;;;;;;;6.65;95.82;98111.97;5009322;28;20032;-83
2023/12/29 11:00:34;;;;;;;4.85;1.75;;;;;;;6.73;96.55;98125.63;5006434;28;20025;-83
2023/12/29 11:03:00;;;;;;;7.05;2.58;;;;;;;6.78;96.47;98131.03;5005776;28;20465;-82
2023/12/29 11:05:26;;;;;;;5.60;2.22;;;;;;;6.73;96.29;98130.13;5008055;28;20026;-82
2023/12/29 11:07:54;;;;;;;3.28;2.42;;;;;;;6.69;97.10;98123.69;5004638;28;20520;-82
2023/12/29 11:10:23;;;;;;;2.08;1.95;;;;;;;6.74;96.13;98129.09;5009866;28;20473;-82
2023/12/29 11:12:48;;;;;;;6.20;2.08;;;;;;;6.70;96.60;98106.75;5011892;28;20084;-82
2023/12/29 11:15:15;;;;;;;5.30;2.20;;;;;;;6.71;96.24;98089.78;5008317;28;20688;-82
2023/12/29 11:17:49;;;;;;;3.33;2.65;;;;;;;6.67;97.11;98086.00;5003776;28;20041;-82
2023/12/29 11:20:19;;;;;;;5.10;2.92;;;;;;;6.70;97.13;98110.22;4977311;28;20040;-82
2023/12/29 11:22:47;;;;;;;8.25;2.50;;;;;;;6.72;97.22;98102.00;5003976;28;20042;-83
2023/12/29 11:25:12;;;;;;;1.58;1.45;;;;;;;6.66;97.58;98103.00;5007934;28;20032;-82
2023/12/29 11:27:38;;;;;;;5.65;2.65;;;;;;;6.73;98.24;98108.91;5010959;28;20038;-82
2023/12/29 11:30:05;;;;;;;1.70;1.60;;;;;;;6.76;96.98;98103.13;5007514;28;20089;-82
2023/12/29 11:32:45;;;;;;;4.55;1.95;;;;;;;6.70;96.45;98107.56;5010615;28;20420;-81
2023/12/29 11:35:12;;;;;;;3.45;2.00;;;;;;;6.74;97.40;98118.47;5010184;28;20026;-82
2023/12/29 11:37:56;;;;;;;2.22;1.95;;;;;;;6.72;97.30;98107.31;5009396;28;20041;-81